createdAt,value
2018-12-20T00:01:12.894Z,13.90
2018-12-20T00:04:20.495Z,12.90
2018-12-20T00:07:28.707Z,12.63
2018-12-20T00:10:36.600Z,14.40
2018-12-20T00:13:44.192Z,14.53
2018-12-20T00:17:10.520Z,15.30
2018-12-20T00:20:18.416Z,14.67
2018-12-20T00:23:38.770Z,18.63
2018-12-20T00:26:46.556Z,13.27
2018-12-20T00:29:54.225Z,15.70
2018-12-20T00:33:02.073Z,14.03
2018-12-20T00:36:09.792Z,15.20
2018-12-20T00:39:18.440Z,15.10
2018-12-20T00:42:25.991Z,13.57
2018-12-20T00:45:33.734Z,14.30
2018-12-20T00:48:42.119Z,14.10
2018-12-20T00:51:49.756Z,14.87
2018-12-20T00:54:57.903Z,15.70
2018-12-20T00:58:05.601Z,15.07
2018-12-20T01:01:27.766Z,14.93
2018-12-20T01:04:35.672Z,13.37
2018-12-20T01:07:43.268Z,14.17
2018-12-20T01:10:50.984Z,15.20
2018-12-20T01:13:59.029Z,15.27
2018-12-20T01:17:07.520Z,14.63
2018-12-20T01:20:15.639Z,17.07
2018-12-20T01:23:23.443Z,15.17
2018-12-20T01:26:31.039Z,16.67
2018-12-20T01:29:39.031Z,16.00
2018-12-20T01:32:46.965Z,16.60
2018-12-20T01:35:54.880Z,17.80
2018-12-20T01:39:03.592Z,14.03
2018-12-20T01:42:11.682Z,14.53
2018-12-20T01:45:19.586Z,17.63
2018-12-20T01:48:39.482Z,16.23
2018-12-20T01:51:47.457Z,16.57
2018-12-20T01:54:55.039Z,17.93
2018-12-20T01:58:03.218Z,17.27
2018-12-20T02:01:11.023Z,18.33
2018-12-20T02:04:18.984Z,21.03
2018-12-20T02:07:27.032Z,18.37
2018-12-20T02:10:35.154Z,21.40
2018-12-20T02:13:43.107Z,19.53
2018-12-20T02:16:51.170Z,17.80
2018-12-20T02:19:59.378Z,16.33
2018-12-20T02:23:07.389Z,18.33
2018-12-20T02:26:15.331Z,18.37
2018-12-20T02:29:23.639Z,19.43
2018-12-20T02:32:45.259Z,18.13
2018-12-20T02:35:53.115Z,18.40
2018-12-20T02:39:00.763Z,17.77
2018-12-20T02:42:08.861Z,17.87
2018-12-20T02:45:16.751Z,17.87
2018-12-20T02:48:24.713Z,18.67
2018-12-20T02:51:32.497Z,18.70
2018-12-20T02:54:40.343Z,17.47
2018-12-20T02:58:00.677Z,19.00
2018-12-20T03:01:08.974Z,21.40
2018-12-20T03:04:29.774Z,17.57
2018-12-20T03:07:50.256Z,20.33
2018-12-20T03:11:09.922Z,19.87
2018-12-20T03:14:17.813Z,19.37
2018-12-20T03:17:25.748Z,22.97
2018-12-20T03:20:34.088Z,21.30
2018-12-20T03:23:41.903Z,19.43
2018-12-20T03:26:49.728Z,17.10
2018-12-20T03:29:58.073Z,18.93
2018-12-20T03:33:05.805Z,21.23
2018-12-20T03:36:26.536Z,19.30
2018-12-20T03:39:46.535Z,19.33
2018-12-20T03:42:54.576Z,20.03
2018-12-20T03:46:14.843Z,19.83
2018-12-20T03:49:22.685Z,19.57
2018-12-20T03:52:31.388Z,19.60
2018-12-20T03:55:39.811Z,20.87
2018-12-20T03:58:47.643Z,22.33
2018-12-20T04:01:55.419Z,24.00
2018-12-20T04:05:03.785Z,22.13
2018-12-20T04:08:11.740Z,22.70
2018-12-20T04:11:19.534Z,19.20
2018-12-20T04:14:27.413Z,22.10
2018-12-20T04:17:35.496Z,22.73
2018-12-20T04:20:43.112Z,20.03
2018-12-20T04:24:02.303Z,20.77
2018-12-20T04:27:09.995Z,21.03
2018-12-20T04:30:17.588Z,21.70
2018-12-20T04:33:25.428Z,24.03
2018-12-20T04:36:33.324Z,21.83
2018-12-20T04:39:41.204Z,20.53
2018-12-20T04:43:01.189Z,20.87
2018-12-20T04:46:20.515Z,21.57
2018-12-20T04:49:29.587Z,22.80
2018-12-20T04:52:37.725Z,21.60
2018-12-20T04:55:57.870Z,21.30
2018-12-20T04:59:06.390Z,22.27
2018-12-20T05:02:14.451Z,20.10
2018-12-20T05:05:22.265Z,21.57
2018-12-20T05:08:30.124Z,21.90
2018-12-20T05:11:38.517Z,22.97
2018-12-20T05:14:46.687Z,21.47
2018-12-20T05:17:54.752Z,20.27
2018-12-20T05:21:02.517Z,24.93
2018-12-20T05:24:10.378Z,22.60
2018-12-20T05:27:18.211Z,19.60
2018-12-20T05:30:26.100Z,22.87
2018-12-20T05:33:33.863Z,20.27
2018-12-20T05:36:41.833Z,21.70
2018-12-20T05:39:49.535Z,22.20
2018-12-20T05:42:57.621Z,22.37
2018-12-20T05:46:06.304Z,24.73
2018-12-20T05:49:14.941Z,26.93
2018-12-20T05:52:22.856Z,23.83
2018-12-20T05:55:43.010Z,24.03
2018-12-20T05:59:03.661Z,22.93
2018-12-20T06:02:11.600Z,24.57
2018-12-20T06:05:31.875Z,22.33
2018-12-20T06:08:39.775Z,25.33
2018-12-20T06:11:47.291Z,23.10
2018-12-20T06:14:54.884Z,22.17
2018-12-20T06:18:14.996Z,27.47
2018-12-20T06:21:22.500Z,25.93
2018-12-20T06:24:30.375Z,25.33
2018-12-20T06:27:37.885Z,23.07
2018-12-20T06:30:57.771Z,22.80
2018-12-20T06:34:05.710Z,22.10
2018-12-20T06:37:13.599Z,25.97
2018-12-20T06:40:21.383Z,26.37
2018-12-20T06:43:29.072Z,25.33
2018-12-20T06:46:38.769Z,22.57
2018-12-20T06:49:46.320Z,22.37
2018-12-20T06:52:53.843Z,23.77
2018-12-20T06:56:01.450Z,24.43
2018-12-20T06:59:20.791Z,24.40
2018-12-20T07:02:28.337Z,23.67
2018-12-20T07:05:36.017Z,23.47
2018-12-20T07:08:43.639Z,26.80
2018-12-20T07:11:51.272Z,26.03
2018-12-20T07:14:59.067Z,24.93
2018-12-20T07:18:06.813Z,27.47
2018-12-20T07:21:14.324Z,24.60
2018-12-20T07:24:34.741Z,25.97
2018-12-20T07:27:54.347Z,25.00
2018-12-20T07:31:14.406Z,25.77
2018-12-20T07:34:36.369Z,25.13
2018-12-20T07:37:56.546Z,23.30
2018-12-20T07:41:17.985Z,24.77
2018-12-20T07:44:25.630Z,26.70
2018-12-20T07:47:33.348Z,26.20
2018-12-20T07:50:40.916Z,28.97
2018-12-20T07:54:01.962Z,24.70
2018-12-20T07:57:09.961Z,24.73
2018-12-20T08:00:34.385Z,26.77
2018-12-20T08:03:41.962Z,27.73
2018-12-20T08:06:49.527Z,26.40
2018-12-20T08:09:57.152Z,28.10
2018-12-20T08:13:04.754Z,26.67
2018-12-20T08:16:12.388Z,27.93
2018-12-20T08:19:20.013Z,24.17
2018-12-20T08:22:27.640Z,26.13
2018-12-20T08:25:47.867Z,25.63
2018-12-20T08:28:55.556Z,23.20
2018-12-20T08:32:03.159Z,26.30
2018-12-20T08:35:10.762Z,26.97
2018-12-20T08:38:32.081Z,26.33
2018-12-20T08:41:39.865Z,23.73
2018-12-20T08:44:47.479Z,24.80
2018-12-20T08:47:55.142Z,27.40
2018-12-20T08:51:15.705Z,25.07
2018-12-20T08:54:23.215Z,27.00
2018-12-20T08:57:30.751Z,26.17
2018-12-20T09:00:38.376Z,25.93
2018-12-20T09:03:58.259Z,27.93
2018-12-20T09:07:17.713Z,24.87
2018-12-20T09:10:38.358Z,25.47
2018-12-20T09:13:45.967Z,27.10
2018-12-20T09:16:53.451Z,23.80
2018-12-20T09:20:01.032Z,31.67
2018-12-20T09:23:21.819Z,28.60
2018-12-20T09:26:29.444Z,28.20
2018-12-20T09:29:37.060Z,28.20
2018-12-20T09:32:46.187Z,25.53
2018-12-20T09:35:53.776Z,26.43
2018-12-20T09:39:15.321Z,28.13
2018-12-20T09:42:22.876Z,25.37
2018-12-20T09:45:30.492Z,26.23
2018-12-20T09:48:38.084Z,29.13
2018-12-20T09:51:59.727Z,28.13
2018-12-20T09:55:21.359Z,30.07
2018-12-20T09:58:29.271Z,31.03
2018-12-20T10:01:36.809Z,27.13
2018-12-20T10:04:58.247Z,26.27
2018-12-20T10:08:06.168Z,26.23
2018-12-20T10:11:13.717Z,26.37
2018-12-20T10:14:21.272Z,25.07
2018-12-20T10:17:48.341Z,25.70
2018-12-20T10:21:15.724Z,25.40
2018-12-20T10:24:23.571Z,26.97
2018-12-20T10:27:31.760Z,23.13
2018-12-20T10:30:39.731Z,26.67
2018-12-20T10:33:47.313Z,30.60
2018-12-20T10:37:14.488Z,28.40
2018-12-20T10:40:37.971Z,26.30
2018-12-20T10:43:46.098Z,30.87
2018-12-20T10:46:55.724Z,25.27
2018-12-20T10:50:03.613Z,28.53
2018-12-20T10:53:11.241Z,28.13
2018-12-20T10:56:19.346Z,25.97
2018-12-20T10:59:26.921Z,28.93
2018-12-20T11:02:39.562Z,25.43
2018-12-20T11:06:07.088Z,28.40
2018-12-20T11:09:20.796Z,27.93
2018-12-20T11:12:48.907Z,26.03
2018-12-20T11:15:56.420Z,27.80
2018-12-20T11:19:15.795Z,25.70
2018-12-20T11:22:44.001Z,27.10
2018-12-20T11:25:51.580Z,25.27
2018-12-20T11:28:59.324Z,25.77
2018-12-20T11:32:06.891Z,26.20
2018-12-20T11:35:26.468Z,27.23
2018-12-20T11:38:34.079Z,26.07
2018-12-20T11:41:41.667Z,28.60
2018-12-20T11:44:49.987Z,27.20
2018-12-20T11:47:57.583Z,27.90
2018-12-20T11:51:05.159Z,25.90
2018-12-20T11:54:12.684Z,25.70
2018-12-20T11:57:36.667Z,28.30
2018-12-20T12:00:58.519Z,26.27
2018-12-20T12:04:17.359Z,25.90
2018-12-20T12:07:36.859Z,26.90
2018-12-20T12:10:44.335Z,24.77
2018-12-20T12:13:51.992Z,29.37
2018-12-20T12:16:59.614Z,26.77
2018-12-20T12:20:08.619Z,27.27
2018-12-20T12:23:16.168Z,30.33
2018-12-20T12:26:23.749Z,24.93
2018-12-20T12:29:47.858Z,27.47
2018-12-20T12:33:10.977Z,28.30
2018-12-20T12:36:18.592Z,25.03
2018-12-20T12:39:26.120Z,24.47
2018-12-20T12:42:46.104Z,25.90
2018-12-20T12:45:54.393Z,27.93
2018-12-20T12:49:02.087Z,25.40
2018-12-20T12:52:09.619Z,26.93
2018-12-20T12:55:17.200Z,27.93
2018-12-20T12:58:25.252Z,29.07
2018-12-20T13:01:33.548Z,25.50
2018-12-20T13:04:41.133Z,29.77
2018-12-20T13:07:48.683Z,27.43
2018-12-20T13:10:58.324Z,27.90
2018-12-20T13:14:18.999Z,26.13
2018-12-20T13:17:38.296Z,23.60
2018-12-20T13:20:45.860Z,22.87
2018-12-20T13:23:53.494Z,23.90
2018-12-20T13:27:01.056Z,20.60
2018-12-20T13:30:20.649Z,21.03
2018-12-20T13:33:40.840Z,22.07
2018-12-20T13:36:48.428Z,20.57
2018-12-20T13:39:56.056Z,22.40
2018-12-20T13:43:04.436Z,22.33
2018-12-20T13:46:13.144Z,20.40
2018-12-20T13:49:20.810Z,23.63
2018-12-20T13:52:28.385Z,22.60
2018-12-20T13:55:35.972Z,19.90
2018-12-20T13:58:43.588Z,22.20
2018-12-20T14:01:51.203Z,20.60
2018-12-20T14:04:58.782Z,18.83
2018-12-20T14:08:05.845Z,22.70
2018-12-20T14:11:13.455Z,22.00
2018-12-20T14:14:32.600Z,21.83
2018-12-20T14:20:57.982Z,18.70
2018-12-20T14:27:25.595Z,21.03
2018-12-20T14:30:33.243Z,23.90
2018-12-20T14:33:40.836Z,18.30
2018-12-20T14:36:48.862Z,19.33
2018-12-20T14:39:56.497Z,18.93
2018-12-20T14:43:04.039Z,19.27
2018-12-20T14:46:11.987Z,21.70
2018-12-20T14:49:19.865Z,16.17
2018-12-20T14:52:27.372Z,21.03
2018-12-20T14:55:35.479Z,20.70
2018-12-20T14:58:44.128Z,21.50
2018-12-20T15:01:51.705Z,20.60
2018-12-20T15:04:59.706Z,22.00
2018-12-20T15:08:18.787Z,18.07
2018-12-20T15:11:27.106Z,17.40
2018-12-20T15:14:35.140Z,20.17
2018-12-20T15:17:42.709Z,18.97
2018-12-20T15:20:50.499Z,18.23
2018-12-20T15:23:58.810Z,18.80
2018-12-20T15:27:19.658Z,18.13
2018-12-20T15:30:27.136Z,16.93
2018-12-20T15:33:34.834Z,17.50
2018-12-20T15:36:42.944Z,20.03
2018-12-20T15:39:50.645Z,18.67
2018-12-20T15:42:59.024Z,18.03
2018-12-20T15:46:07.264Z,15.43
2018-12-20T15:49:26.399Z,16.07
2018-12-20T15:52:33.958Z,16.60
2018-12-20T15:55:41.802Z,16.17
2018-12-20T15:59:01.345Z,17.50
2018-12-20T16:02:09.148Z,16.40
2018-12-20T16:05:16.724Z,16.43
2018-12-20T16:08:38.348Z,15.63
2018-12-20T16:11:47.099Z,16.17
2018-12-20T16:14:54.926Z,17.97
2018-12-20T16:18:02.532Z,16.43
2018-12-20T16:21:21.343Z,21.90
2018-12-20T16:24:40.124Z,14.30
2018-12-20T16:27:47.754Z,14.23
2018-12-20T16:30:55.424Z,14.40
2018-12-20T16:34:03.021Z,17.20
2018-12-20T16:37:23.848Z,16.20
2018-12-20T16:40:31.404Z,15.07
2018-12-20T16:43:39.105Z,16.17
2018-12-20T16:46:47.013Z,22.93
2018-12-20T16:49:54.632Z,17.10
2018-12-20T16:53:02.237Z,18.60
2018-12-20T16:59:31.980Z,18.00
2018-12-20T17:02:50.268Z,16.43
2018-12-20T17:06:09.905Z,19.17
2018-12-20T17:09:17.465Z,18.50
2018-12-20T17:15:43.176Z,19.27
2018-12-20T17:19:01.568Z,18.77
2018-12-20T17:22:21.307Z,19.17
2018-12-20T17:25:40.819Z,18.03
2018-12-20T17:29:00.228Z,21.47
2018-12-20T17:32:07.816Z,21.10
2018-12-20T17:35:15.323Z,18.43
2018-12-20T17:38:23.270Z,22.97
2018-12-20T17:41:42.715Z,18.43
2018-12-20T17:45:00.764Z,18.87
2018-12-20T17:48:19.178Z,20.53
2018-12-20T17:51:38.017Z,20.90
2018-12-20T17:54:57.392Z,17.43
2018-12-20T17:58:14.959Z,20.87
2018-12-20T18:01:34.987Z,17.73
2018-12-20T18:04:42.605Z,18.00
2018-12-20T18:11:07.570Z,18.63
2018-12-20T18:14:26.786Z,18.17
2018-12-20T18:17:46.177Z,18.90
2018-12-20T18:21:08.655Z,17.40
2018-12-20T18:24:29.485Z,17.93
2018-12-20T18:27:48.371Z,19.47
2018-12-20T18:31:08.693Z,18.40
2018-12-20T18:34:16.956Z,19.30
2018-12-20T18:40:42.213Z,19.93
2018-12-20T18:43:49.889Z,19.20
2018-12-20T18:50:15.233Z,18.73
2018-12-20T18:53:22.777Z,14.53
2018-12-20T18:59:49.861Z,14.50
2018-12-20T19:02:57.341Z,17.30
2018-12-20T19:06:05.270Z,15.83
2018-12-20T19:09:12.862Z,18.73
2018-12-20T19:15:39.875Z,16.93
2018-12-20T19:18:47.456Z,16.27
2018-12-20T19:21:54.997Z,18.30
2018-12-20T19:25:02.475Z,16.33
2018-12-20T19:28:10.094Z,16.50
2018-12-20T19:31:32.839Z,16.90
2018-12-20T19:34:55.212Z,15.47
2018-12-20T19:38:22.263Z,16.57
2018-12-20T19:41:29.813Z,17.73
2018-12-20T19:44:37.652Z,16.47
2018-12-20T19:47:45.251Z,15.33
2018-12-20T19:50:52.732Z,15.53
2018-12-20T19:54:00.284Z,15.37
2018-12-20T19:57:07.788Z,18.47
2018-12-20T20:00:31.300Z,18.23
2018-12-20T20:03:53.968Z,16.27
2018-12-20T20:07:17.444Z,15.67
2018-12-20T20:10:24.986Z,16.60
2018-12-20T20:13:32.540Z,16.97
2018-12-20T20:16:41.039Z,14.60
2018-12-20T20:19:48.658Z,17.60
2018-12-20T20:22:56.152Z,14.80
2018-12-20T20:26:04.151Z,12.33
2018-12-20T20:29:11.988Z,14.23
2018-12-20T20:32:19.568Z,10.60
2018-12-20T20:35:42.413Z,11.43
2018-12-20T20:39:04.505Z,11.93
2018-12-20T20:42:38.064Z,8.97
2018-12-20T20:45:57.815Z,9.93
2018-12-20T20:49:20.713Z,8.30
2018-12-20T20:52:28.349Z,8.97
2018-12-20T20:55:35.904Z,9.53
2018-12-20T20:58:43.524Z,8.13
2018-12-20T21:02:06.212Z,10.00
2018-12-20T21:05:16.723Z,10.77
2018-12-20T21:08:24.304Z,10.87
2018-12-20T21:11:47.015Z,9.77
2018-12-20T21:15:09.511Z,9.20
2018-12-20T21:18:32.386Z,11.60
2018-12-20T21:21:55.066Z,11.13
2018-12-20T21:25:18.482Z,11.83
2018-12-20T21:28:40.800Z,10.00
2018-12-20T21:31:48.331Z,11.80
2018-12-20T21:34:55.851Z,12.17
2018-12-20T21:38:03.775Z,13.03
2018-12-20T21:41:26.655Z,10.87
2018-12-20T21:44:49.272Z,11.73
2018-12-20T21:48:12.840Z,14.33
2018-12-20T21:51:21.035Z,11.23
2018-12-20T21:54:28.516Z,11.37
2018-12-20T21:57:51.080Z,12.43
2018-12-20T22:01:12.733Z,11.97
2018-12-20T22:04:33.859Z,11.20
2018-12-20T22:07:41.423Z,11.40
2018-12-20T22:10:48.945Z,13.00
2018-12-20T22:13:56.540Z,13.07
2018-12-20T22:17:04.381Z,12.47
2018-12-20T22:20:11.935Z,11.03
2018-12-20T22:23:19.432Z,13.30
2018-12-20T22:26:26.899Z,11.83
2018-12-20T22:29:34.482Z,11.13
2018-12-20T22:32:55.328Z,10.70
2018-12-20T22:36:14.713Z,11.43
2018-12-20T22:39:36.363Z,10.43
2018-12-20T22:42:58.900Z,10.30
2018-12-20T22:46:21.500Z,11.40
2018-12-20T22:49:42.259Z,11.73
2018-12-20T22:52:49.836Z,11.93
2018-12-20T22:55:57.457Z,11.73
2018-12-20T22:59:05.453Z,11.83
2018-12-20T23:02:18.074Z,12.13
2018-12-20T23:05:22.542Z,11.43
2018-12-20T23:08:30.512Z,14.83
2018-12-20T23:11:38.024Z,12.90
2018-12-20T23:14:45.611Z,12.50
2018-12-20T23:17:53.135Z,12.40
2018-12-20T23:21:13.748Z,12.97
2018-12-20T23:24:37.107Z,14.27
2018-12-20T23:27:59.304Z,15.00
2018-12-20T23:31:20.697Z,12.57
2018-12-20T23:34:42.048Z,12.33
2018-12-20T23:38:06.692Z,13.60
2018-12-20T23:41:14.268Z,14.73
2018-12-20T23:44:22.755Z,14.93
2018-12-20T23:47:30.386Z,13.73
2018-12-20T23:50:37.979Z,14.37
2018-12-20T23:54:00.724Z,14.67
2018-12-20T23:57:21.235Z,14.97
